sensor_id;sensor_type;location;lat;lon;timestamp;temperature;humidity
2200;DHT22;1106;48.762;9.168;2022-10-04T00:01:02;8.40;96.00
2200;DHT22;1106;48.762;9.168;2022-10-04T00:03:33;8.40;96.30
2200;DHT22;1106;48.762;9.168;2022-10-04T00:06:02;8.40;96.60
2200;DHT22;1106;48.762;9.168;2022-10-04T00:08:35;8.40;96.80
2200;DHT22;1106;48.762;9.168;2022-10-04T00:11:16;8.50;96.80
2200;DHT22;1106;48.762;9.168;2022-10-04T00:13:48;8.50;96.50
2200;DHT22;1106;48.762;9.168;2022-10-04T00:16:22;8.50;96.40
2200;DHT22;1106;48.762;9.168;2022-10-04T00:19:01;8.50;96.90
2200;DHT22;1106;48.762;9.168;2022-10-04T00:22:09;8.50;96.90
2200;DHT22;1106;48.762;9.168;2022-10-04T00:24:38;8.50;96.90
2200;DHT22;1106;48.762;9.168;2022-10-04T00:27:27;8.50;96.90
2200;DHT22;1106;48.762;9.168;2022-10-04T00:30:15;8.50;96.60
2200;DHT22;1106;48.762;9.168;2022-10-04T00:32:59;8.50;96.70
2200;DHT22;1106;48.762;9.168;2022-10-04T00:35:47;8.50;96.80
2200;DHT22;1106;48.762;9.168;2022-10-04T00:38:16;8.50;96.70
2200;DHT22;1106;48.762;9.168;2022-10-04T00:40:54;8.50;96.70
2200;DHT22;1106;48.762;9.168;2022-10-04T00:43:27;8.40;96.70
2200;DHT22;1106;48.762;9.168;2022-10-04T00:45:58;8.50;97.20
2200;DHT22;1106;48.762;9.168;2022-10-04T00:48:36;8.40;97.00
2200;DHT22;1106;48.762;9.168;2022-10-04T00:51:21;8.40;96.90
2200;DHT22;1106;48.762;9.168;2022-10-04T00:53:58;8.40;96.80
2200;DHT22;1106;48.762;9.168;2022-10-04T00:56:31;8.40;96.80
2200;DHT22;1106;48.762;9.168;2022-10-04T00:59:32;8.40;96.80
2200;DHT22;1106;48.762;9.168;2022-10-04T01:02:04;8.40;96.80
2200;DHT22;1106;48.762;9.168;2022-10-04T01:04:39;8.30;96.80
2200;DHT22;1106;48.762;9.168;2022-10-04T01:07:09;8.30;96.90
2200;DHT22;1106;48.762;9.168;2022-10-04T01:09:42;8.30;96.90
2200;DHT22;1106;48.762;9.168;2022-10-04T01:12:19;8.30;97.30
2200;DHT22;1106;48.762;9.168;2022-10-04T01:14:55;8.30;96.80
2200;DHT22;1106;48.762;9.168;2022-10-04T01:17:25;8.30;96.60
2200;DHT22;1106;48.762;9.168;2022-10-04T01:19:53;8.30;96.60
2200;DHT22;1106;48.762;9.168;2022-10-04T01:22:33;8.20;96.50
2200;DHT22;1106;48.762;9.168;2022-10-04T01:25:01;8.20;96.40
2200;DHT22;1106;48.762;9.168;2022-10-04T01:27:33;8.10;96.30
2200;DHT22;1106;48.762;9.168;2022-10-04T01:30:05;8.10;96.20
2200;DHT22;1106;48.762;9.168;2022-10-04T01:32:33;8.10;96.20
2200;DHT22;1106;48.762;9.168;2022-10-04T01:35:01;8.00;96.00
2200;DHT22;1106;48.762;9.168;2022-10-04T01:37:29;8.10;95.80
2200;DHT22;1106;48.762;9.168;2022-10-04T01:39:57;8.00;96.10
2200;DHT22;1106;48.762;9.168;2022-10-04T01:42:28;8.00;95.80
2200;DHT22;1106;48.762;9.168;2022-10-04T01:45:00;8.00;96.00
2200;DHT22;1106;48.762;9.168;2022-10-04T01:47:33;7.90;96.30
2200;DHT22;1106;48.762;9.168;2022-10-04T01:50:07;7.90;96.50
2200;DHT22;1106;48.762;9.168;2022-10-04T01:52:42;7.90;96.40
2200;DHT22;1106;48.762;9.168;2022-10-04T01:55:13;7.90;96.70
2200;DHT22;1106;48.762;9.168;2022-10-04T01:57:45;7.90;96.60
2200;DHT22;1106;48.762;9.168;2022-10-04T02:00:13;7.90;96.40
2200;DHT22;1106;48.762;9.168;2022-10-04T02:02:48;7.90;96.00
2200;DHT22;1106;48.762;9.168;2022-10-04T02:05:18;8.00;95.70
2200;DHT22;1106;48.762;9.168;2022-10-04T02:07:49;7.90;95.70
2200;DHT22;1106;48.762;9.168;2022-10-04T02:10:19;7.80;96.30
2200;DHT22;1106;48.762;9.168;2022-10-04T02:12:48;7.80;96.10
2200;DHT22;1106;48.762;9.168;2022-10-04T02:15:18;7.70;96.10
2200;DHT22;1106;48.762;9.168;2022-10-04T02:17:47;7.60;96.20
2200;DHT22;1106;48.762;9.168;2022-10-04T02:20:16;7.60;96.10
2200;DHT22;1106;48.762;9.168;2022-10-04T02:22:45;7.60;96.30
2200;DHT22;1106;48.762;9.168;2022-10-04T02:25:17;7.60;96.10
2200;DHT22;1106;48.762;9.168;2022-10-04T02:27:44;7.60;96.10
2200;DHT22;1106;48.762;9.168;2022-10-04T02:30:12;7.60;96.30
2200;DHT22;1106;48.762;9.168;2022-10-04T02:32:41;7.60;96.80
2200;DHT22;1106;48.762;9.168;2022-10-04T02:35:26;7.70;97.10
2200;DHT22;1106;48.762;9.168;2022-10-04T02:38:00;7.70;96.80
2200;DHT22;1106;48.762;9.168;2022-10-04T02:40:31;7.80;96.70
2200;DHT22;1106;48.762;9.168;2022-10-04T02:43:05;7.80;96.70
2200;DHT22;1106;48.762;9.168;2022-10-04T02:45:41;7.80;96.70
2200;DHT22;1106;48.762;9.168;2022-10-04T02:48:20;7.80;96.80
2200;DHT22;1106;48.762;9.168;2022-10-04T02:50:51;7.80;96.70
2200;DHT22;1106;48.762;9.168;2022-10-04T02:53:23;7.80;96.80
2200;DHT22;1106;48.762;9.168;2022-10-04T02:55:53;7.80;96.80
2200;DHT22;1106;48.762;9.168;2022-10-04T02:58:23;7.80;96.80
2200;DHT22;1106;48.762;9.168;2022-10-04T03:00:54;7.80;96.70
2200;DHT22;1106;48.762;9.168;2022-10-04T03:03:24;7.80;97.00
2200;DHT22;1106;48.762;9.168;2022-10-04T03:06:01;7.70;97.10
2200;DHT22;1106;48.762;9.168;2022-10-04T03:08:32;7.80;96.90
2200;DHT22;1106;48.762;9.168;2022-10-04T03:11:02;7.80;96.50
2200;DHT22;1106;48.762;9.168;2022-10-04T03:13:30;7.70;96.80
2200;DHT22;1106;48.762;9.168;2022-10-04T03:15:59;7.70;97.00
2200;DHT22;1106;48.762;9.168;2022-10-04T03:18:26;7.70;97.20
2200;DHT22;1106;48.762;9.168;2022-10-04T03:20:55;7.70;97.10
2200;DHT22;1106;48.762;9.168;2022-10-04T03:23:22;7.70;97.10
2200;DHT22;1106;48.762;9.168;2022-10-04T03:25:52;7.70;97.10
2200;DHT22;1106;48.762;9.168;2022-10-04T03:28:20;7.70;97.00
2200;DHT22;1106;48.762;9.168;2022-10-04T03:30:48;7.70;97.30
2200;DHT22;1106;48.762;9.168;2022-10-04T03:33:20;7.70;97.00
2200;DHT22;1106;48.762;9.168;2022-10-04T03:35:51;7.70;96.80
2200;DHT22;1106;48.762;9.168;2022-10-04T03:38:20;7.70;96.70
2200;DHT22;1106;48.762;9.168;2022-10-04T03:40:50;7.60;96.90
2200;DHT22;1106;48.762;9.168;2022-10-04T03:43:24;7.70;97.20
2200;DHT22;1106;48.762;9.168;2022-10-04T03:45:52;7.70;97.40
2200;DHT22;1106;48.762;9.168;2022-10-04T03:48:31;7.70;97.30
2200;DHT22;1106;48.762;9.168;2022-10-04T03:50:59;7.70;97.00
2200;DHT22;1106;48.762;9.168;2022-10-04T03:53:31;7.60;97.00
2200;DHT22;1106;48.762;9.168;2022-10-04T03:56:01;7.60;97.00
2200;DHT22;1106;48.762;9.168;2022-10-04T03:58:30;7.60;97.10
2200;DHT22;1106;48.762;9.168;2022-10-04T04:01:13;7.60;97.00
2200;DHT22;1106;48.762;9.168;2022-10-04T04:03:52;7.60;97.00
2200;DHT22;1106;48.762;9.168;2022-10-04T04:06:21;7.70;97.00
2200;DHT22;1106;48.762;9.168;2022-10-04T04:08:51;7.60;96.90
2200;DHT22;1106;48.762;9.168;2022-10-04T04:11:22;7.70;97.20
2200;DHT22;1106;48.762;9.168;2022-10-04T04:13:54;7.70;96.90
2200;DHT22;1106;48.762;9.168;2022-10-04T04:16:25;7.70;96.50
2200;DHT22;1106;48.762;9.168;2022-10-04T04:18:53;7.60;96.50
2200;DHT22;1106;48.762;9.168;2022-10-04T04:21:21;7.60;96.80
2200;DHT22;1106;48.762;9.168;2022-10-04T04:23:53;7.60;96.80
2200;DHT22;1106;48.762;9.168;2022-10-04T04:26:27;7.60;96.50
2200;DHT22;1106;48.762;9.168;2022-10-04T04:29:02;7.60;96.20
2200;DHT22;1106;48.762;9.168;2022-10-04T04:31:35;7.50;96.00
2200;DHT22;1106;48.762;9.168;2022-10-04T04:34:12;7.50;96.00
2200;DHT22;1106;48.762;9.168;2022-10-04T04:36:41;7.50;96.20
2200;DHT22;1106;48.762;9.168;2022-10-04T04:39:11;7.50;96.50
2200;DHT22;1106;48.762;9.168;2022-10-04T04:41:57;7.60;96.30
2200;DHT22;1106;48.762;9.168;2022-10-04T04:44:26;7.60;96.30
2200;DHT22;1106;48.762;9.168;2022-10-04T04:46:54;7.60;96.50
2200;DHT22;1106;48.762;9.168;2022-10-04T04:49:21;7.60;96.50
2200;DHT22;1106;48.762;9.168;2022-10-04T04:51:50;7.60;96.80
2200;DHT22;1106;48.762;9.168;2022-10-04T04:54:21;7.70;96.40
2200;DHT22;1106;48.762;9.168;2022-10-04T04:56:51;7.60;96.70
2200;DHT22;1106;48.762;9.168;2022-10-04T04:59:20;7.60;96.70
2200;DHT22;1106;48.762;9.168;2022-10-04T05:01:49;7.60;97.00
2200;DHT22;1106;48.762;9.168;2022-10-04T05:04:18;7.60;96.90
2200;DHT22;1106;48.762;9.168;2022-10-04T05:06:48;7.60;96.50
2200;DHT22;1106;48.762;9.168;2022-10-04T05:09:26;7.50;96.50
2200;DHT22;1106;48.762;9.168;2022-10-04T05:11:56;7.60;96.70
2200;DHT22;1106;48.762;9.168;2022-10-04T05:14:27;7.60;96.30
2200;DHT22;1106;48.762;9.168;2022-10-04T05:16:58;7.60;96.30
2200;DHT22;1106;48.762;9.168;2022-10-04T05:19:27;7.60;96.30
2200;DHT22;1106;48.762;9.168;2022-10-04T05:21:57;7.60;96.20
2200;DHT22;1106;48.762;9.168;2022-10-04T05:24:27;7.60;96.20
2200;DHT22;1106;48.762;9.168;2022-10-04T05:26:58;7.60;96.10
2200;DHT22;1106;48.762;9.168;2022-10-04T05:29:29;7.70;95.40
2200;DHT22;1106;48.762;9.168;2022-10-04T05:32:14;7.60;95.30
2200;DHT22;1106;48.762;9.168;2022-10-04T05:34:48;7.60;95.30
2200;DHT22;1106;48.762;9.168;2022-10-04T05:37:34;7.60;95.40
2200;DHT22;1106;48.762;9.168;2022-10-04T05:40:09;7.60;95.20
2200;DHT22;1106;48.762;9.168;2022-10-04T05:42:42;7.70;95.10
2200;DHT22;1106;48.762;9.168;2022-10-04T05:45:16;7.70;94.90
2200;DHT22;1106;48.762;9.168;2022-10-04T05:47:48;7.70;95.00
2200;DHT22;1106;48.762;9.168;2022-10-04T05:50:19;7.70;95.40
2200;DHT22;1106;48.762;9.168;2022-10-04T05:52:49;7.70;95.40
2200;DHT22;1106;48.762;9.168;2022-10-04T05:55:25;7.80;95.20
2200;DHT22;1106;48.762;9.168;2022-10-04T05:58:14;7.80;95.00
2200;DHT22;1106;48.762;9.168;2022-10-04T06:01:05;7.90;95.10
2200;DHT22;1106;48.762;9.168;2022-10-04T06:03:57;7.90;95.10
2200;DHT22;1106;48.762;9.168;2022-10-04T06:06:32;7.90;94.90
2200;DHT22;1106;48.762;9.168;2022-10-04T06:09:08;7.80;94.60
2200;DHT22;1106;48.762;9.168;2022-10-04T06:11:47;7.80;94.80
2200;DHT22;1106;48.762;9.168;2022-10-04T06:14:54;7.90;95.10
2200;DHT22;1106;48.762;9.168;2022-10-04T06:20:53;8.20;95.30
2200;DHT22;1106;48.762;9.168;2022-10-04T06:23:25;8.30;95.20
2200;DHT22;1106;48.762;9.168;2022-10-04T06:25:56;8.50;94.80
2200;DHT22;1106;48.762;9.168;2022-10-04T06:28:28;8.60;94.20
2200;DHT22;1106;48.762;9.168;2022-10-04T06:31:13;8.60;94.20
2200;DHT22;1106;48.762;9.168;2022-10-04T06:33:59;8.70;94.10
2200;DHT22;1106;48.762;9.168;2022-10-04T06:40:00;9.00;94.60
2200;DHT22;1106;48.762;9.168;2022-10-04T06:42:57;9.20;94.60
2200;DHT22;1106;48.762;9.168;2022-10-04T06:45:50;9.40;93.20
2200;DHT22;1106;48.762;9.168;2022-10-04T06:51:52;9.50;92.50
2200;DHT22;1106;48.762;9.168;2022-10-04T06:54:33;9.60;92.50
2200;DHT22;1106;48.762;9.168;2022-10-04T06:57:22;9.80;92.10
2200;DHT22;1106;48.762;9.168;2022-10-04T07:00:07;9.90;91.40
2200;DHT22;1106;48.762;9.168;2022-10-04T07:02:48;10.10;91.60
2200;DHT22;1106;48.762;9.168;2022-10-04T07:05:24;10.10;92.00
2200;DHT22;1106;48.762;9.168;2022-10-04T07:08:05;10.30;90.30
2200;DHT22;1106;48.762;9.168;2022-10-04T07:10:44;10.30;89.70
2200;DHT22;1106;48.762;9.168;2022-10-04T07:13:20;10.40;89.80
2200;DHT22;1106;48.762;9.168;2022-10-04T07:15:58;10.50;90.10
2200;DHT22;1106;48.762;9.168;2022-10-04T07:18:31;10.60;90.10
2200;DHT22;1106;48.762;9.168;2022-10-04T07:21:07;10.70;90.20
2200;DHT22;1106;48.762;9.168;2022-10-04T07:23:49;10.90;89.50
2200;DHT22;1106;48.762;9.168;2022-10-04T07:26:26;11.00;88.90
2200;DHT22;1106;48.762;9.168;2022-10-04T07:28:56;11.10;88.40
2200;DHT22;1106;48.762;9.168;2022-10-04T07:31:44;11.20;88.40
2200;DHT22;1106;48.762;9.168;2022-10-04T07:34:19;11.30;87.80
2200;DHT22;1106;48.762;9.168;2022-10-04T07:37:05;11.50;87.40
2200;DHT22;1106;48.762;9.168;2022-10-04T07:39:49;11.60;86.10
2200;DHT22;1106;48.762;9.168;2022-10-04T07:42:28;11.70;85.10
2200;DHT22;1106;48.762;9.168;2022-10-04T07:45:12;11.80;84.70
2200;DHT22;1106;48.762;9.168;2022-10-04T07:47:42;11.80;84.20
2200;DHT22;1106;48.762;9.168;2022-10-04T07:50:21;12.00;83.40
2200;DHT22;1106;48.762;9.168;2022-10-04T07:52:54;11.90;82.80
2200;DHT22;1106;48.762;9.168;2022-10-04T07:55:28;11.60;83.70
2200;DHT22;1106;48.762;9.168;2022-10-04T08:00:53;11.80;82.30
2200;DHT22;1106;48.762;9.168;2022-10-04T08:03:44;11.80;83.10
2200;DHT22;1106;48.762;9.168;2022-10-04T08:06:16;11.90;81.90
2200;DHT22;1106;48.762;9.168;2022-10-04T08:09:01;11.90;82.00
2200;DHT22;1106;48.762;9.168;2022-10-04T08:11:39;12.10;82.10
2200;DHT22;1106;48.762;9.168;2022-10-04T08:14:18;12.20;81.80
2200;DHT22;1106;48.762;9.168;2022-10-04T08:16:57;12.40;81.30
2200;DHT22;1106;48.762;9.168;2022-10-04T08:19:41;12.50;80.90
2200;DHT22;1106;48.762;9.168;2022-10-04T08:22:18;12.70;80.30
2200;DHT22;1106;48.762;9.168;2022-10-04T08:24:55;12.80;80.00
2200;DHT22;1106;48.762;9.168;2022-10-04T08:27:43;13.00;79.60
2200;DHT22;1106;48.762;9.168;2022-10-04T08:30:44;13.10;79.40
2200;DHT22;1106;48.762;9.168;2022-10-04T08:33:24;13.10;79.40
2200;DHT22;1106;48.762;9.168;2022-10-04T08:36:02;13.20;79.40
2200;DHT22;1106;48.762;9.168;2022-10-04T08:38:43;13.40;79.20
2200;DHT22;1106;48.762;9.168;2022-10-04T08:41:49;13.40;78.90
2200;DHT22;1106;48.762;9.168;2022-10-04T08:44:57;13.40;78.60
2200;DHT22;1106;48.762;9.168;2022-10-04T08:47:58;13.40;79.20
2200;DHT22;1106;48.762;9.168;2022-10-04T08:57:55;13.80;78.00
2200;DHT22;1106;48.762;9.168;2022-10-04T09:00:37;13.90;78.20
2200;DHT22;1106;48.762;9.168;2022-10-04T09:03:31;14.00;77.80
2200;DHT22;1106;48.762;9.168;2022-10-04T09:06:38;14.10;77.50
2200;DHT22;1106;48.762;9.168;2022-10-04T09:12:32;14.20;77.60
2200;DHT22;1106;48.762;9.168;2022-10-04T09:18:04;14.50;75.50
2200;DHT22;1106;48.762;9.168;2022-10-04T09:20:53;14.40;75.50
2200;DHT22;1106;48.762;9.168;2022-10-04T09:23:45;14.50;75.60
2200;DHT22;1106;48.762;9.168;2022-10-04T09:26:20;14.60;75.50
2200;DHT22;1106;48.762;9.168;2022-10-04T09:32:39;14.80;74.60
2200;DHT22;1106;48.762;9.168;2022-10-04T09:38:33;15.20;74.40
2200;DHT22;1106;48.762;9.168;2022-10-04T09:41:21;15.40;74.30
2200;DHT22;1106;48.762;9.168;2022-10-04T09:47:07;15.80;71.80
2200;DHT22;1106;48.762;9.168;2022-10-04T09:52:49;16.00;71.30
2200;DHT22;1106;48.762;9.168;2022-10-04T09:55:38;16.20;70.90
2200;DHT22;1106;48.762;9.168;2022-10-04T10:01:26;16.40;69.50
2200;DHT22;1106;48.762;9.168;2022-10-04T10:04:08;16.50;69.70
2200;DHT22;1106;48.762;9.168;2022-10-04T10:06:58;16.70;69.20
2200;DHT22;1106;48.762;9.168;2022-10-04T10:09:37;16.70;69.40
2200;DHT22;1106;48.762;9.168;2022-10-04T10:12:39;16.80;69.10
2200;DHT22;1106;48.762;9.168;2022-10-04T10:15:29;16.80;68.80
2200;DHT22;1106;48.762;9.168;2022-10-04T10:18:09;16.80;68.30
2200;DHT22;1106;48.762;9.168;2022-10-04T10:24:08;16.90;68.40
2200;DHT22;1106;48.762;9.168;2022-10-04T10:26:52;16.80;68.80
2200;DHT22;1106;48.762;9.168;2022-10-04T10:29:47;16.90;68.80
2200;DHT22;1106;48.762;9.168;2022-10-04T10:32:38;17.10;68.90
2200;DHT22;1106;48.762;9.168;2022-10-04T10:35:23;17.10;68.50
2200;DHT22;1106;48.762;9.168;2022-10-04T10:38:10;17.20;68.70
2200;DHT22;1106;48.762;9.168;2022-10-04T10:40:56;17.30;68.90
2200;DHT22;1106;48.762;9.168;2022-10-04T10:43:50;17.30;68.90
2200;DHT22;1106;48.762;9.168;2022-10-04T10:46:44;17.40;68.60
2200;DHT22;1106;48.762;9.168;2022-10-04T10:49:34;17.50;69.20
2200;DHT22;1106;48.762;9.168;2022-10-04T10:52:24;17.60;68.20
2200;DHT22;1106;48.762;9.168;2022-10-04T11:01:15;17.80;68.20
2200;DHT22;1106;48.762;9.168;2022-10-04T11:04:16;18.00;67.90
2200;DHT22;1106;48.762;9.168;2022-10-04T11:07:13;18.10;67.40
2200;DHT22;1106;48.762;9.168;2022-10-04T11:13:03;18.20;67.30
2200;DHT22;1106;48.762;9.168;2022-10-04T11:21:59;18.60;66.60
2200;DHT22;1106;48.762;9.168;2022-10-04T11:24:51;18.80;67.00
2200;DHT22;1106;48.762;9.168;2022-10-04T11:27:32;18.80;67.10
2200;DHT22;1106;48.762;9.168;2022-10-04T11:30:14;18.90;66.50
2200;DHT22;1106;48.762;9.168;2022-10-04T11:33:20;19.00;66.20
2200;DHT22;1106;48.762;9.168;2022-10-04T11:36:17;19.00;66.10
2200;DHT22;1106;48.762;9.168;2022-10-04T11:39:00;19.10;66.10
2200;DHT22;1106;48.762;9.168;2022-10-04T11:41:41;19.20;66.00
2200;DHT22;1106;48.762;9.168;2022-10-04T11:44:46;19.30;65.80
2200;DHT22;1106;48.762;9.168;2022-10-04T11:47:30;19.30;65.70
2200;DHT22;1106;48.762;9.168;2022-10-04T11:50:14;19.30;65.70
2200;DHT22;1106;48.762;9.168;2022-10-04T11:56:17;19.50;65.50
2200;DHT22;1106;48.762;9.168;2022-10-04T11:58:58;19.60;65.10
2200;DHT22;1106;48.762;9.168;2022-10-04T12:02:20;19.70;65.20
2200;DHT22;1106;48.762;9.168;2022-10-04T12:08:04;20.00;64.70
2200;DHT22;1106;48.762;9.168;2022-10-04T12:10:37;20.10;65.10
2200;DHT22;1106;48.762;9.168;2022-10-04T12:19:27;20.40;63.10
2200;DHT22;1106;48.762;9.168;2022-10-04T12:22:25;20.50;63.20
2200;DHT22;1106;48.762;9.168;2022-10-04T12:25:42;20.30;63.80
2200;DHT22;1106;48.762;9.168;2022-10-04T12:28:25;20.50;63.80
2200;DHT22;1106;48.762;9.168;2022-10-04T12:33:51;20.50;64.10
2200;DHT22;1106;48.762;9.168;2022-10-04T12:36:28;20.50;63.40
2200;DHT22;1106;48.762;9.168;2022-10-04T12:39:07;20.50;63.60
2200;DHT22;1106;48.762;9.168;2022-10-04T12:41:50;20.40;63.90
2200;DHT22;1106;48.762;9.168;2022-10-04T12:44:29;20.30;64.10
2200;DHT22;1106;48.762;9.168;2022-10-04T12:47:21;20.30;63.90
2200;DHT22;1106;48.762;9.168;2022-10-04T12:49:55;20.30;63.90
2200;DHT22;1106;48.762;9.168;2022-10-04T12:52:31;20.30;63.60
2200;DHT22;1106;48.762;9.168;2022-10-04T12:55:08;20.40;62.70
2200;DHT22;1106;48.762;9.168;2022-10-04T12:57:43;20.40;62.60
2200;DHT22;1106;48.762;9.168;2022-10-04T13:00:19;20.20;62.30
2200;DHT22;1106;48.762;9.168;2022-10-04T13:03:12;20.00;62.80
2200;DHT22;1106;48.762;9.168;2022-10-04T13:05:53;20.00;62.70
2200;DHT22;1106;48.762;9.168;2022-10-04T13:08:39;19.90;62.90
2200;DHT22;1106;48.762;9.168;2022-10-04T13:11:23;19.90;62.90
2200;DHT22;1106;48.762;9.168;2022-10-04T13:14:06;19.90;62.90
2200;DHT22;1106;48.762;9.168;2022-10-04T13:16:48;19.90;62.60
2200;DHT22;1106;48.762;9.168;2022-10-04T13:19:21;20.00;62.40
2200;DHT22;1106;48.762;9.168;2022-10-04T13:22:21;20.00;62.00
2200;DHT22;1106;48.762;9.168;2022-10-04T13:25:01;20.00;62.30
2200;DHT22;1106;48.762;9.168;2022-10-04T13:27:38;20.10;62.10
2200;DHT22;1106;48.762;9.168;2022-10-04T13:30:17;20.20;61.70
2200;DHT22;1106;48.762;9.168;2022-10-04T13:32:54;20.10;61.50
2200;DHT22;1106;48.762;9.168;2022-10-04T13:35:26;20.00;60.50
2200;DHT22;1106;48.762;9.168;2022-10-04T13:38:24;19.90;61.20
2200;DHT22;1106;48.762;9.168;2022-10-04T13:41:12;20.00;60.90
2200;DHT22;1106;48.762;9.168;2022-10-04T13:44:10;20.10;60.80
2200;DHT22;1106;48.762;9.168;2022-10-04T13:46:46;20.10;61.70
2200;DHT22;1106;48.762;9.168;2022-10-04T13:49:27;20.00;62.00
2200;DHT22;1106;48.762;9.168;2022-10-04T13:52:12;20.00;62.40
2200;DHT22;1106;48.762;9.168;2022-10-04T13:55:11;19.80;62.00
2200;DHT22;1106;48.762;9.168;2022-10-04T13:58:17;19.90;62.40
2200;DHT22;1106;48.762;9.168;2022-10-04T14:01:16;19.90;61.70
2200;DHT22;1106;48.762;9.168;2022-10-04T14:03:57;20.00;62.20
2200;DHT22;1106;48.762;9.168;2022-10-04T14:16:02;19.90;62.90
2200;DHT22;1106;48.762;9.168;2022-10-04T14:19:05;20.00;63.00
2200;DHT22;1106;48.762;9.168;2022-10-04T14:22:03;20.10;63.30
2200;DHT22;1106;48.762;9.168;2022-10-04T14:25:08;20.00;63.50
2200;DHT22;1106;48.762;9.168;2022-10-04T14:28:20;20.10;63.40
2200;DHT22;1106;48.762;9.168;2022-10-04T14:31:01;20.00;63.60
2200;DHT22;1106;48.762;9.168;2022-10-04T14:33:52;20.00;63.50
2200;DHT22;1106;48.762;9.168;2022-10-04T14:36:43;20.10;63.40
2200;DHT22;1106;48.762;9.168;2022-10-04T14:39:32;20.10;63.60
2200;DHT22;1106;48.762;9.168;2022-10-04T14:42:35;20.00;64.00
2200;DHT22;1106;48.762;9.168;2022-10-04T14:45:27;20.00;64.20
2200;DHT22;1106;48.762;9.168;2022-10-04T14:54:01;20.10;64.20
2200;DHT22;1106;48.762;9.168;2022-10-04T14:59:59;20.20;63.70
2200;DHT22;1106;48.762;9.168;2022-10-04T15:02:48;20.20;64.30
2200;DHT22;1106;48.762;9.168;2022-10-04T15:05:37;20.10;64.20
2200;DHT22;1106;48.762;9.168;2022-10-04T15:08:36;20.30;64.40
2200;DHT22;1106;48.762;9.168;2022-10-04T15:11:09;20.30;64.60
2200;DHT22;1106;48.762;9.168;2022-10-04T15:13:46;20.30;64.60
2200;DHT22;1106;48.762;9.168;2022-10-04T15:16:32;20.30;64.70
2200;DHT22;1106;48.762;9.168;2022-10-04T15:19:07;20.30;64.90
2200;DHT22;1106;48.762;9.168;2022-10-04T15:21:45;20.20;65.00
2200;DHT22;1106;48.762;9.168;2022-10-04T15:24:26;20.20;65.10
2200;DHT22;1106;48.762;9.168;2022-10-04T15:30:07;20.20;65.80
2200;DHT22;1106;48.762;9.168;2022-10-04T15:32:40;20.20;66.30
2200;DHT22;1106;48.762;9.168;2022-10-04T15:35:19;20.20;66.30
2200;DHT22;1106;48.762;9.168;2022-10-04T15:37:55;20.20;66.30
2200;DHT22;1106;48.762;9.168;2022-10-04T15:40:29;20.10;66.50
2200;DHT22;1106;48.762;9.168;2022-10-04T15:43:19;20.10;66.50
2200;DHT22;1106;48.762;9.168;2022-10-04T15:49:34;20.00;66.60
2200;DHT22;1106;48.762;9.168;2022-10-04T15:52:13;19.90;66.90
2200;DHT22;1106;48.762;9.168;2022-10-04T15:57:40;19.80;67.40
2200;DHT22;1106;48.762;9.168;2022-10-04T16:00:21;19.70;67.60
2200;DHT22;1106;48.762;9.168;2022-10-04T16:03:06;19.70;67.60
2200;DHT22;1106;48.762;9.168;2022-10-04T16:05:43;19.60;67.90
2200;DHT22;1106;48.762;9.168;2022-10-04T16:08:41;19.60;68.10
2200;DHT22;1106;48.762;9.168;2022-10-04T16:14:34;19.50;68.70
2200;DHT22;1106;48.762;9.168;2022-10-04T16:17:26;19.40;69.10
2200;DHT22;1106;48.762;9.168;2022-10-04T16:20:19;19.30;69.30
2200;DHT22;1106;48.762;9.168;2022-10-04T16:23:30;19.20;69.60
2200;DHT22;1106;48.762;9.168;2022-10-04T16:25:58;19.10;70.00
2200;DHT22;1106;48.762;9.168;2022-10-04T16:28:42;19.00;70.00
2200;DHT22;1106;48.762;9.168;2022-10-04T16:31:36;19.00;69.80
2200;DHT22;1106;48.762;9.168;2022-10-04T16:34:16;18.90;70.00
2200;DHT22;1106;48.762;9.168;2022-10-04T16:36:51;18.80;70.60
2200;DHT22;1106;48.762;9.168;2022-10-04T16:39:35;18.70;71.50
2200;DHT22;1106;48.762;9.168;2022-10-04T16:42:26;18.50;73.10
2200;DHT22;1106;48.762;9.168;2022-10-04T16:44:58;18.40;74.20
2200;DHT22;1106;48.762;9.168;2022-10-04T16:47:33;18.20;74.80
2200;DHT22;1106;48.762;9.168;2022-10-04T16:50:10;18.00;75.40
2200;DHT22;1106;48.762;9.168;2022-10-04T16:52:52;17.90;76.30
2200;DHT22;1106;48.762;9.168;2022-10-04T16:55:45;17.70;77.10
2200;DHT22;1106;48.762;9.168;2022-10-04T16:58:34;17.40;78.10
2200;DHT22;1106;48.762;9.168;2022-10-04T17:04:17;17.00;80.00
2200;DHT22;1106;48.762;9.168;2022-10-04T17:06:53;16.90;80.90
2200;DHT22;1106;48.762;9.168;2022-10-04T17:09:27;16.70;81.40
2200;DHT22;1106;48.762;9.168;2022-10-04T17:12:11;16.60;81.90
2200;DHT22;1106;48.762;9.168;2022-10-04T17:14:56;16.50;82.20
2200;DHT22;1106;48.762;9.168;2022-10-04T17:17:35;16.40;82.60
2200;DHT22;1106;48.762;9.168;2022-10-04T17:20:16;16.20;82.60
2200;DHT22;1106;48.762;9.168;2022-10-04T17:22:56;16.10;82.80
2200;DHT22;1106;48.762;9.168;2022-10-04T17:25:32;16.00;83.30
2200;DHT22;1106;48.762;9.168;2022-10-04T17:28:14;15.90;83.70
2200;DHT22;1106;48.762;9.168;2022-10-04T17:30:52;15.80;84.00
2200;DHT22;1106;48.762;9.168;2022-10-04T17:33:28;15.70;84.30
2200;DHT22;1106;48.762;9.168;2022-10-04T17:36:24;15.60;84.50
2200;DHT22;1106;48.762;9.168;2022-10-04T17:39:01;15.50;84.70
2200;DHT22;1106;48.762;9.168;2022-10-04T17:41:42;15.50;85.10
2200;DHT22;1106;48.762;9.168;2022-10-04T17:44:27;15.40;85.30
2200;DHT22;1106;48.762;9.168;2022-10-04T17:47:03;15.40;85.40
2200;DHT22;1106;48.762;9.168;2022-10-04T17:49:40;15.30;85.80
2200;DHT22;1106;48.762;9.168;2022-10-04T17:52:28;15.30;85.90
2200;DHT22;1106;48.762;9.168;2022-10-04T17:55:19;15.10;86.30
2200;DHT22;1106;48.762;9.168;2022-10-04T17:57:50;15.00;86.80
2200;DHT22;1106;48.762;9.168;2022-10-04T18:00:21;14.90;87.00
2200;DHT22;1106;48.762;9.168;2022-10-04T18:03:08;14.80;87.20
2200;DHT22;1106;48.762;9.168;2022-10-04T18:05:45;14.70;87.70
2200;DHT22;1106;48.762;9.168;2022-10-04T18:08:18;14.80;87.80
2200;DHT22;1106;48.762;9.168;2022-10-04T18:10:49;14.70;88.00
2200;DHT22;1106;48.762;9.168;2022-10-04T18:13:24;14.50;88.40
2200;DHT22;1106;48.762;9.168;2022-10-04T18:16:00;14.50;88.50
2200;DHT22;1106;48.762;9.168;2022-10-04T18:18:29;14.40;88.60
2200;DHT22;1106;48.762;9.168;2022-10-04T18:21:17;14.40;88.60
2200;DHT22;1106;48.762;9.168;2022-10-04T18:23:51;14.40;88.60
2200;DHT22;1106;48.762;9.168;2022-10-04T18:26:40;14.30;88.70
2200;DHT22;1106;48.762;9.168;2022-10-04T18:29:34;14.30;89.10
2200;DHT22;1106;48.762;9.168;2022-10-04T18:32:14;14.20;89.70
2200;DHT22;1106;48.762;9.168;2022-10-04T18:34:45;14.20;89.80
2200;DHT22;1106;48.762;9.168;2022-10-04T18:37:36;14.20;89.80
2200;DHT22;1106;48.762;9.168;2022-10-04T18:40:15;14.10;89.70
2200;DHT22;1106;48.762;9.168;2022-10-04T18:42:54;14.00;89.90
2200;DHT22;1106;48.762;9.168;2022-10-04T18:45:26;13.90;90.10
2200;DHT22;1106;48.762;9.168;2022-10-04T18:48:14;13.90;90.30
2200;DHT22;1106;48.762;9.168;2022-10-04T18:50:52;13.90;90.30
2200;DHT22;1106;48.762;9.168;2022-10-04T18:53:43;13.80;90.40
2200;DHT22;1106;48.762;9.168;2022-10-04T18:56:16;13.80;90.50
2200;DHT22;1106;48.762;9.168;2022-10-04T18:59:09;13.80;90.70
2200;DHT22;1106;48.762;9.168;2022-10-04T19:02:17;13.80;90.60
2200;DHT22;1106;48.762;9.168;2022-10-04T19:04:59;13.70;90.90
2200;DHT22;1106;48.762;9.168;2022-10-04T19:07:39;13.70;91.00
2200;DHT22;1106;48.762;9.168;2022-10-04T19:10:30;13.60;91.00
2200;DHT22;1106;48.762;9.168;2022-10-04T19:16:18;13.60;91.20
2200;DHT22;1106;48.762;9.168;2022-10-04T19:22:00;13.50;91.60
2200;DHT22;1106;48.762;9.168;2022-10-04T19:27:48;13.40;91.80
2200;DHT22;1106;48.762;9.168;2022-10-04T19:30:38;13.40;91.80